Have a Safe July 4th! 

Flight Track Log - Related Links

Times and Time Zones

All times are in EDT time to prevent confusion due to time zone crossing. See the CPZ5750 flight status page for this flight to view local times or setup timezone preferences in your user account.

Time Position Orientation Groundspeed Altitude Reporting Facility
EDT Latitude Longitude Course Direction KTS MPH feet Rate Location/Type
Wed 08:07:41 PM 37.6428 -122.3519 12° North 165 190 36,000  Level Oakland Center
Wed 08:08:20 PM 37.6667 -122.3167 49° Northeast 203 234 2,100 -8,871 Descending Northern Cal TRACON
Wed 08:10:47 PM 37.8022 -122.1972 35° Northeast 281 323 8,500 2,481 Climbing Oakland Center
Wed 08:11:00 PM 38.0808 -122.3728 North  Level Estimated
Wed 08:11:48 PM 37.8806 -122.1744 13° North 289 333 10,700  Level Oakland Center
Wed 08:12:00 PM 38.1940 -122.3435 12° North  Level FlightAware Approximate
Wed 08:12:50 PM 37.9711 -122.1469 13° North 334 384 12,000  Level Oakland Center
Wed 08:13:52 PM 38.0672 -122.1158 14° North 354 407 14,000 2,129 Climbing Oakland Center
Wed 08:14:54 PM 38.1917 -122.1128 North 378 435 16,400 1,902 Climbing Oakland Center
Wed 08:15:55 PM 38.2967 -122.1181 358° North 377 434 17,900 1,561 Climbing Oakland Center
Wed 08:16:57 PM 38.4067 -122.1247 357° North 393 452 19,600 1,645 Climbing Oakland Center
Wed 08:17:59 PM 38.5197 -122.1317 357° North 401 461 21,300 1,561 Climbing Oakland Center
Wed 08:19:00 PM 38.6344 -122.1372 358° North 409 471 22,800 1,463 Climbing Oakland Center
Wed 08:20:02 PM 38.7583 -122.1467 357° North 417 480 24,300 1,306 Climbing Oakland Center
Wed 08:21:04 PM 38.8783 -122.1533 358° North 426 490 25,500 1,065 Climbing Oakland Center
Wed 08:22:06 PM 39.0019 -122.1592 358° North 440 506 26,500 1,073 Climbing Oakland Center
Wed 08:23:07 PM 39.1272 -122.1678 357° North 447 514 27,700 1,122 Climbing Oakland Center
Wed 08:24:09 PM 39.2808 -122.1767 357° North 457 526 28,800 1,113 Climbing Oakland Center
Wed 08:25:11 PM 39.4094 -122.1833 358° North 458 527 30,000 1,171 Climbing Oakland Center
Wed 08:26:12 PM 39.5314 -122.1900 358° North 458 527 31,200 1,122 Climbing Oakland Center
Wed 08:27:14 PM 39.6567 -122.1975 357° North 454 522 32,300 1,016 Climbing Oakland Center
Wed 08:28:16 PM 39.7819 -122.2047 357° North 453 521 33,300 878 Climbing Oakland Center
Wed 08:29:17 PM 39.9053 -122.2108 358° North 450 518 34,100 829 Climbing Oakland Center
Wed 08:30:19 PM 40.0544 -122.2194 357° North 449 517 35,000 774 Climbing Oakland Center
Wed 08:31:21 PM 40.1794 -122.2178 North 467 537 35,700 488 Climbing Oakland Center
Wed 08:32:22 PM 40.2975 -122.2358 353° North 454 522 36,000 146 Climbing Oakland Center
Wed 08:33:24 PM 40.4239 -122.2431 358° North 455 524 36,000  Level Oakland Center
Wed 08:34:25 PM 40.5731 -122.2514 358° North 449 517 36,000  Level Oakland Center
Wed 08:35:27 PM 40.6975 -122.2589 357° North 450 518 36,000  Level Oakland Center
Wed 08:36:28 PM 40.8222 -122.2664 357° North 449 517 36,000  Level Oakland Center
Wed 08:37:30 PM 40.9464 -122.2728 358° North 448 516 36,000  Level Oakland Center
Wed 08:38:31 PM 41.0706 -122.2814 357° North 447 514 36,000  Level Oakland Center
Wed 08:39:33 PM 41.1950 -122.2942 356° North 448 516 36,000  Level Oakland Center
Wed 08:40:34 PM 41.3183 -122.3003 358° North 447 514 36,000  Level Oakland Center
Wed 08:41:36 PM 41.4522 -122.3058 358° North 446 513 36,000  Level Oakland Center
Wed 08:42:37 PM 41.5764 -122.3139 357° North 446 513 36,000  Level Oakland Center
Wed 08:43:14 PM 41.6544 -122.3206 356° North 446 513 36,000  Level Seattle Center
Wed 08:44:15 PM 41.7783 -122.3281 357° North 446 513 36,000  Level Seattle Center
Wed 08:45:17 PM 41.9036 -122.3350 358° North 446 513 36,000  Level Seattle Center
Wed 08:46:18 PM 42.0283 -122.3425 357° North 446 513 36,000  Level Seattle Center
Wed 08:47:19 PM 42.1542 -122.3517 357° North 446 513 36,000  Level Seattle Center
Wed 08:48:21 PM 42.2792 -122.3575 358° North 446 513 36,000  Level Seattle Center
Wed 08:49:22 PM 42.4039 -122.3650 357° North 446 513 36,000  Level Seattle Center
Wed 08:50:23 PM 42.5289 -122.3733 357° North 446 513 36,000  Level Seattle Center
Wed 08:51:24 PM 42.6781 -122.3828 357° North 448 516 36,000  Level Seattle Center
Wed 08:52:26 PM 42.8044 -122.3903 358° North 452 520 36,000  Level Seattle Center
Wed 08:53:27 PM 42.9286 -122.4000 357° North 450 518 36,000  Level Seattle Center
Wed 08:54:28 PM 43.0533 -122.4072 358° North 451 519 36,000  Level Seattle Center
Wed 08:55:29 PM 43.1778 -122.4156 357° North 451 519 36,000  Level Seattle Center
Wed 08:56:30 PM 43.3039 -122.4214 358° North 453 521 36,000  Level Seattle Center
Wed 08:57:32 PM 43.4286 -122.4297 357° North 453 521 36,000  Level Seattle Center
Wed 08:58:33 PM 43.5539 -122.4372 358° North 453 521 36,000  Level Seattle Center
Wed 08:59:34 PM 43.6781 -122.4475 357° North 452 520 36,000  Level Seattle Center
Wed 09:00:35 PM 43.8025 -122.4556 357° North 452 520 36,000  Level Seattle Center
Wed 09:01:37 PM 43.9517 -122.4661 357° North 450 518 36,000  Level Seattle Center
Wed 09:02:38 PM 44.0756 -122.4742 357° North 450 518 36,000  Level Seattle Center
Wed 09:03:39 PM 44.1997 -122.4831 357° North 451 519 36,000  Level Seattle Center
Wed 09:04:40 PM 44.3231 -122.4908 357° North 448 516 36,000  Level Seattle Center
Wed 09:05:41 PM 44.4475 -122.4983 358° North 449 517 36,000  Level Seattle Center
Wed 09:06:42 PM 44.5717 -122.5072 357° North 449 517 36,000  Level Seattle Center
Wed 09:07:44 PM 44.6969 -122.5156 357° North 449 517 36,000  Level Seattle Center
Wed 09:08:45 PM 44.8222 -122.5253 357° North 451 519 36,000  Level Seattle Center
Wed 09:09:46 PM 44.9653 -122.5342 357° North 447 514 36,000  Level Seattle Center
Wed 09:10:47 PM 45.0903 -122.5433 357° North 448 516 36,000  Level Seattle Center
Wed 09:11:48 PM 45.2167 -122.5519 357° North 454 522 36,000  Level Seattle Center
Wed 09:12:49 PM 45.3411 -122.5614 357° North 454 522 36,000  Level Seattle Center
Wed 09:13:50 PM 45.4664 -122.5719 357° North 454 522 36,000  Level Seattle Center
Wed 09:14:51 PM 45.5894 -122.5803 357° North 453 521 36,000  Level Seattle Center
Wed 09:15:52 PM 45.7128 -122.5878 358° North 450 518 36,000  Level Seattle Center
Wed 09:16:53 PM 45.8336 -122.6128 352° North 443 510 36,000 -689 Level Seattle Center
Wed 09:17:54 PM 45.9536 -122.6408 351° North 441 507 34,600 -2,066 Descending Seattle Center
Wed 09:18:55 PM 46.0975 -122.6758 350° North 441 507 31,800 -2,508 Descending Seattle Center
Wed 09:19:56 PM 46.2211 -122.7006 352° North 442 509 29,500 -2,311 Descending Seattle Center
Wed 09:20:57 PM 46.3425 -122.7217 353° North 442 509 27,100 -2,262 Descending Seattle Center
Wed 09:21:58 PM 46.4600 -122.7281 358° North 430 495 24,900 -2,164 Descending Seattle Center
Wed 09:22:59 PM 46.5739 -122.7322 359° North 415 478 22,700 -2,115 Descending Seattle Center
Wed 09:24:00 PM 46.6836 -122.7350 359° North 400 460 20,600 -2,182 Descending Seattle Center
Wed 09:24:38 PM 46.7544 -122.7353 360° North 381 438 19,100 -1,967 Descending Seattle Center
Wed 09:25:01 PM 46.7883 -122.7267 10° North 384 442 18,600 -1,837 Descending Seattle Center
Wed 09:25:27 PM 46.8336 -122.6800 35° Northeast 381 438 17,600 -2,262 Descending Seattle Center
Wed 09:26:02 PM 46.8850 -122.6189 39° Northeast 390 449 16,300 -2,066 Descending Seattle Center
Wed 09:26:28 PM 46.9167 -122.5867 35° Northeast 376 433 15,500 -1,770 Descending Seattle Center
Wed 09:27:03 PM 46.9703 -122.5444 28° Northeast 365 420 14,500 -1,574 Descending Seattle Center
Wed 09:27:29 PM 47.0050 -122.5325 13° North 348 400 13,900 -1,475 Descending Seattle Center
Wed 09:28:04 PM 47.0619 -122.5064 17° North 347 399 13,000 -1,475 Descending Seattle Center
Wed 09:28:30 PM 47.1042 -122.4947 11° North 333 383 12,400 -1,279 Descending Seattle Center
Wed 09:29:05 PM 47.1503 -122.4861 North 320 368 11,700 -1,279 Descending Seattle Center
Wed 09:29:31 PM 47.1894 -122.4808 North 302 348 11,100 -1,279 Descending Seattle Center
Wed 09:30:06 PM 47.2397 -122.4711 North 295 339 10,400 -984 Descending Seattle Center
Wed 09:30:32 PM 47.2683 -122.4672 North 287 330 10,100 -885 Descending Seattle Center
Wed 09:31:07 PM 47.3139 -122.4606 North 272 313 9,500 -885 Descending Seattle Center
Wed 09:31:33 PM 47.3392 -122.4581 North 251 289 9,200 -984 Descending Seattle Center
Wed 09:32:08 PM 47.3825 -122.4550 North 250 288 8,500 -1,279 Descending Seattle Center
Wed 09:32:34 PM 47.4122 -122.4572 357° North 244 281 7,900 -1,377 Descending Seattle Center
Wed 09:33:09 PM 47.4506 -122.4550 North 249 287 7,100 -1,455 Descending Seattle Center
Wed 09:33:40 PM 47.4881 -122.4583 357° North 248 285 6,300 -1,082 Descending Seattle Center
Wed 09:34:10 PM 47.5192 -122.4547 North 248 285 6,000 -321 Descending Seattle Center
Wed 09:34:36 PM 47.5500 -122.4569 357° North 244 281 6,000  Level Seattle Center
Wed 09:35:11 PM 47.5847 -122.4522 North 240 276 6,000  Level Seattle Center
Wed 09:35:36 PM 47.6178 -122.4525 360° North 238 274 6,000  Level Seattle Center
Wed 09:36:12 PM 47.6511 -122.4442 10° North 242 278 6,000 -590 Level Seattle Center
Wed 09:36:37 PM 47.6642 -122.4072 62° Northeast 233 268 5,400 -1,574 Descending Seattle Center
Wed 09:37:13 PM 47.6408 -122.3617 127° Southeast 227 261 4,400 -1,377 Descending Seattle Center
Wed 09:37:38 PM 47.6231 -122.3414 142° Southeast 213 245 4,000 -590 Descending Seattle Center
Wed 09:38:14 PM 47.5958 -122.3181 150° Southeast 197 227 3,800 -885 Descending Seattle Center
Wed 09:38:39 PM 47.5769 -122.3175 179° South 181 208 3,100 -1,770 Descending Seattle Center
Wed 09:39:15 PM 47.5450 -122.3181 181° South 190 219 2,000 -1,475 Descending Seattle Center
Wed 09:39:40 PM 47.5264 -122.3192 182° South 183 211 1,600 -787 Descending Seattle Center
Wed 09:40:16 PM 47.4989 -122.3172 177° South 168 193 1,200 -742 Descending Seattle Center
Wed 09:41:17 PM 47.4569 -122.3186 181° South 144 166 400 -393 Descending Seattle Center
Wed 09:42:18 PM 47.4275 -122.3194 181° South 134 154 400  Level Seattle Center

Login

Don't have an account? Register now (free) for customized features, flight alerts, and more!